Main page
METAR-TAF:

METAR-TAF

Airports :

Yerevan, Armenia

Zvartnots International Airport

latitude: 40-08-50N, longitude: 044-23-45E, elevation: 865 m

Current weather observation

The report was made 34 minutes ago, at 03:30 UTC
Calm wind
Temperature 2°C
Humidity 80%
Pressure 1019 hPa
Visibility 10 km or more

METAR: UDYZ 240330Z 00000KT 9999 NSC 02/M01 Q1019 R09/000070 NOSIG

Time: 08:04 (04:04 UTC)

Forecast

The report was made 5 hours and 2 minutes ago, at 23:02 UTC
Forecast valid from 24 at 00 UTC to 24 at 24 UTC
Wind 6 kt from the South/Southeast
Visibility 10 km or more
no clouds below 1500 m and no cumulonimbus

TAF: UDYZ 232302Z 2400/2424 15006KT CAVOK

Weather observations and forecasts of more than 4000 airports (METAR and TAF reports).

The available stations are represented by yellow and red dots on the map.

Hover mouse over dot to see the name of the station.

Then click to see weather observations and forecasts.

To change the map : click on the green buttons with a black cross to zoom in, on the green button with a dash to zoom out, or on the green arrows for adjacent maps.


METAR-TAF: